sensor_id;sensor_type;location;lat;lon;timestamp;P1;durP1;ratioP1;P2;durP2;ratioP2
5127;SDS011;2582;48.770;9.190;2022-08-16T00:00:16;4.17;;;3.87;;
5127;SDS011;2582;48.770;9.190;2022-08-16T00:02:43;4.60;;;4.20;;
5127;SDS011;2582;48.770;9.190;2022-08-16T00:05:09;3.47;;;3.17;;
5127;SDS011;2582;48.770;9.190;2022-08-16T00:07:36;4.03;;;3.73;;
5127;SDS011;2582;48.770;9.190;2022-08-16T00:10:03;3.90;;;3.60;;
5127;SDS011;2582;48.770;9.190;2022-08-16T00:12:29;4.70;;;3.87;;
5127;SDS011;2582;48.770;9.190;2022-08-16T00:14:56;4.90;;;3.50;;
5127;SDS011;2582;48.770;9.190;2022-08-16T00:17:24;4.70;;;3.80;;
5127;SDS011;2582;48.770;9.190;2022-08-16T00:19:50;4.87;;;4.07;;
5127;SDS011;2582;48.770;9.190;2022-08-16T00:22:16;3.87;;;3.57;;
5127;SDS011;2582;48.770;9.190;2022-08-16T00:24:43;4.07;;;3.70;;
5127;SDS011;2582;48.770;9.190;2022-08-16T00:27:08;4.10;;;3.70;;
5127;SDS011;2582;48.770;9.190;2022-08-16T00:29:34;4.07;;;3.67;;
5127;SDS011;2582;48.770;9.190;2022-08-16T00:32:00;3.73;;;3.43;;
5127;SDS011;2582;48.770;9.190;2022-08-16T00:34:29;3.80;;;3.50;;
5127;SDS011;2582;48.770;9.190;2022-08-16T00:36:54;4.70;;;4.20;;
5127;SDS011;2582;48.770;9.190;2022-08-16T00:39:20;4.20;;;3.90;;
5127;SDS011;2582;48.770;9.190;2022-08-16T00:41:46;3.53;;;3.23;;
5127;SDS011;2582;48.770;9.190;2022-08-16T00:44:13;5.00;;;3.70;;
5127;SDS011;2582;48.770;9.190;2022-08-16T00:46:58;4.03;;;3.73;;
5127;SDS011;2582;48.770;9.190;2022-08-16T00:49:29;4.40;;;4.00;;
5127;SDS011;2582;48.770;9.190;2022-08-16T00:51:55;4.07;;;3.37;;
5127;SDS011;2582;48.770;9.190;2022-08-16T00:54:21;4.13;;;3.83;;
5127;SDS011;2582;48.770;9.190;2022-08-16T00:56:51;3.83;;;3.53;;
5127;SDS011;2582;48.770;9.190;2022-08-16T00:59:21;4.60;;;4.20;;
5127;SDS011;2582;48.770;9.190;2022-08-16T01:01:48;4.57;;;4.17;;
5127;SDS011;2582;48.770;9.190;2022-08-16T01:04:16;4.23;;;3.83;;
5127;SDS011;2582;48.770;9.190;2022-08-16T01:06:46;4.80;;;4.30;;
5127;SDS011;2582;48.770;9.190;2022-08-16T01:09:12;4.00;;;3.70;;
5127;SDS011;2582;48.770;9.190;2022-08-16T01:11:38;4.87;;;4.47;;
5127;SDS011;2582;48.770;9.190;2022-08-16T01:14:06;4.80;;;4.43;;
5127;SDS011;2582;48.770;9.190;2022-08-16T01:16:39;4.50;;;4.10;;
5127;SDS011;2582;48.770;9.190;2022-08-16T01:24:36;4.47;;;4.07;;
5127;SDS011;2582;48.770;9.190;2022-08-16T01:27:16;4.93;;;4.10;;
5127;SDS011;2582;48.770;9.190;2022-08-16T01:30:05;4.00;;;3.60;;
5127;SDS011;2582;48.770;9.190;2022-08-16T01:32:33;5.10;;;4.70;;
5127;SDS011;2582;48.770;9.190;2022-08-16T01:35:06;4.20;;;3.90;;
5127;SDS011;2582;48.770;9.190;2022-08-16T01:37:43;4.20;;;3.90;;
5127;SDS011;2582;48.770;9.190;2022-08-16T01:40:14;5.23;;;4.73;;
5127;SDS011;2582;48.770;9.190;2022-08-16T01:42:43;4.10;;;3.70;;
5127;SDS011;2582;48.770;9.190;2022-08-16T01:45:10;4.47;;;4.17;;
5127;SDS011;2582;48.770;9.190;2022-08-16T01:47:37;4.43;;;4.03;;
5127;SDS011;2582;48.770;9.190;2022-08-16T01:50:05;5.70;;;4.20;;
5127;SDS011;2582;48.770;9.190;2022-08-16T01:52:32;4.30;;;4.00;;
5127;SDS011;2582;48.770;9.190;2022-08-16T01:54:58;4.77;;;4.07;;
5127;SDS011;2582;48.770;9.190;2022-08-16T01:57:24;4.90;;;4.50;;
5127;SDS011;2582;48.770;9.190;2022-08-16T01:59:50;4.40;;;4.00;;
5127;SDS011;2582;48.770;9.190;2022-08-16T02:02:16;5.10;;;4.70;;
5127;SDS011;2582;48.770;9.190;2022-08-16T02:04:41;4.80;;;4.40;;
5127;SDS011;2582;48.770;9.190;2022-08-16T02:07:07;4.40;;;4.00;;
5127;SDS011;2582;48.770;9.190;2022-08-16T02:09:34;4.10;;;3.70;;
5127;SDS011;2582;48.770;9.190;2022-08-16T02:12:02;5.93;;;4.57;;
5127;SDS011;2582;48.770;9.190;2022-08-16T02:14:30;5.53;;;4.87;;
5127;SDS011;2582;48.770;9.190;2022-08-16T02:16:58;7.53;;;5.40;;
5127;SDS011;2582;48.770;9.190;2022-08-16T02:19:29;4.67;;;4.30;;
5127;SDS011;2582;48.770;9.190;2022-08-16T02:21:56;6.00;;;4.30;;
5127;SDS011;2582;48.770;9.190;2022-08-16T02:24:23;4.50;;;4.13;;
5127;SDS011;2582;48.770;9.190;2022-08-16T02:26:49;4.90;;;4.40;;
5127;SDS011;2582;48.770;9.190;2022-08-16T02:29:15;4.47;;;4.07;;
5127;SDS011;2582;48.770;9.190;2022-08-16T02:31:43;5.10;;;4.60;;
5127;SDS011;2582;48.770;9.190;2022-08-16T02:34:09;5.40;;;4.50;;
5127;SDS011;2582;48.770;9.190;2022-08-16T02:36:36;4.20;;;3.90;;
5127;SDS011;2582;48.770;9.190;2022-08-16T02:39:02;5.90;;;4.80;;
5127;SDS011;2582;48.770;9.190;2022-08-16T02:41:29;4.90;;;4.33;;
5127;SDS011;2582;48.770;9.190;2022-08-16T02:43:55;5.50;;;4.07;;
5127;SDS011;2582;48.770;9.190;2022-08-16T02:46:20;5.70;;;5.20;;
5127;SDS011;2582;48.770;9.190;2022-08-16T02:48:46;5.47;;;4.67;;
5127;SDS011;2582;48.770;9.190;2022-08-16T02:51:12;4.80;;;4.40;;
5127;SDS011;2582;48.770;9.190;2022-08-16T02:53:39;4.33;;;4.00;;
5127;SDS011;2582;48.770;9.190;2022-08-16T02:56:06;6.10;;;5.53;;
5127;SDS011;2582;48.770;9.190;2022-08-16T02:58:36;4.70;;;4.20;;
5127;SDS011;2582;48.770;9.190;2022-08-16T03:01:02;5.07;;;4.67;;
5127;SDS011;2582;48.770;9.190;2022-08-16T03:03:28;5.10;;;4.60;;
5127;SDS011;2582;48.770;9.190;2022-08-16T03:05:53;5.30;;;4.80;;
5127;SDS011;2582;48.770;9.190;2022-08-16T03:08:20;4.33;;;3.87;;
5127;SDS011;2582;48.770;9.190;2022-08-16T03:10:47;5.03;;;4.53;;
5127;SDS011;2582;48.770;9.190;2022-08-16T03:13:13;4.73;;;4.23;;
5127;SDS011;2582;48.770;9.190;2022-08-16T03:15:43;4.60;;;4.20;;
5127;SDS011;2582;48.770;9.190;2022-08-16T03:18:09;4.63;;;4.20;;
5127;SDS011;2582;48.770;9.190;2022-08-16T03:20:35;5.90;;;4.60;;
5127;SDS011;2582;48.770;9.190;2022-08-16T03:23:01;4.83;;;4.43;;
5127;SDS011;2582;48.770;9.190;2022-08-16T03:25:28;6.20;;;4.90;;
5127;SDS011;2582;48.770;9.190;2022-08-16T03:27:54;4.73;;;4.27;;
5127;SDS011;2582;48.770;9.190;2022-08-16T03:30:21;5.17;;;4.77;;
5127;SDS011;2582;48.770;9.190;2022-08-16T03:32:52;5.00;;;4.60;;
5127;SDS011;2582;48.770;9.190;2022-08-16T03:35:19;5.30;;;4.80;;
5127;SDS011;2582;48.770;9.190;2022-08-16T03:37:47;4.67;;;4.10;;
5127;SDS011;2582;48.770;9.190;2022-08-16T03:40:16;5.33;;;4.50;;
5127;SDS011;2582;48.770;9.190;2022-08-16T03:42:42;5.53;;;5.03;;
5127;SDS011;2582;48.770;9.190;2022-08-16T03:45:08;4.90;;;4.50;;
5127;SDS011;2582;48.770;9.190;2022-08-16T03:47:34;4.50;;;4.20;;
5127;SDS011;2582;48.770;9.190;2022-08-16T03:50:00;6.60;;;4.93;;
5127;SDS011;2582;48.770;9.190;2022-08-16T03:52:26;4.63;;;4.23;;
5127;SDS011;2582;48.770;9.190;2022-08-16T03:54:52;4.93;;;4.53;;
5127;SDS011;2582;48.770;9.190;2022-08-16T03:57:17;5.60;;;5.10;;
5127;SDS011;2582;48.770;9.190;2022-08-16T03:59:43;5.10;;;4.70;;
5127;SDS011;2582;48.770;9.190;2022-08-16T04:02:09;5.27;;;4.77;;
5127;SDS011;2582;48.770;9.190;2022-08-16T04:04:36;5.47;;;4.83;;
5127;SDS011;2582;48.770;9.190;2022-08-16T04:07:03;4.77;;;4.37;;
5127;SDS011;2582;48.770;9.190;2022-08-16T04:09:30;5.20;;;4.80;;
5127;SDS011;2582;48.770;9.190;2022-08-16T04:11:56;4.53;;;4.10;;
5127;SDS011;2582;48.770;9.190;2022-08-16T04:14:22;5.63;;;5.00;;
5127;SDS011;2582;48.770;9.190;2022-08-16T04:16:47;5.27;;;4.77;;
5127;SDS011;2582;48.770;9.190;2022-08-16T04:19:13;4.97;;;4.57;;
5127;SDS011;2582;48.770;9.190;2022-08-16T04:21:39;5.60;;;5.00;;
5127;SDS011;2582;48.770;9.190;2022-08-16T04:24:04;5.57;;;5.17;;
5127;SDS011;2582;48.770;9.190;2022-08-16T04:26:30;7.10;;;5.10;;
5127;SDS011;2582;48.770;9.190;2022-08-16T04:28:56;4.47;;;4.07;;
5127;SDS011;2582;48.770;9.190;2022-08-16T04:31:22;5.20;;;4.20;;
5127;SDS011;2582;48.770;9.190;2022-08-16T04:33:47;6.03;;;5.53;;
5127;SDS011;2582;48.770;9.190;2022-08-16T04:36:13;5.37;;;4.30;;
5127;SDS011;2582;48.770;9.190;2022-08-16T04:38:39;4.20;;;3.90;;
5127;SDS011;2582;48.770;9.190;2022-08-16T04:41:05;4.40;;;4.10;;
5127;SDS011;2582;48.770;9.190;2022-08-16T04:43:30;5.10;;;4.60;;
5127;SDS011;2582;48.770;9.190;2022-08-16T04:45:57;5.47;;;4.30;;
5127;SDS011;2582;48.770;9.190;2022-08-16T04:48:23;5.73;;;4.87;;
5127;SDS011;2582;48.770;9.190;2022-08-16T04:50:49;5.20;;;4.50;;
5127;SDS011;2582;48.770;9.190;2022-08-16T04:53:15;7.90;;;4.80;;
5127;SDS011;2582;48.770;9.190;2022-08-16T04:55:41;5.97;;;4.60;;
5127;SDS011;2582;48.770;9.190;2022-08-16T04:58:08;4.97;;;4.57;;
5127;SDS011;2582;48.770;9.190;2022-08-16T05:00:34;4.70;;;4.17;;
5127;SDS011;2582;48.770;9.190;2022-08-16T05:03:04;5.20;;;4.70;;
5127;SDS011;2582;48.770;9.190;2022-08-16T05:05:31;5.70;;;4.87;;
5127;SDS011;2582;48.770;9.190;2022-08-16T05:07:57;5.10;;;4.60;;
5127;SDS011;2582;48.770;9.190;2022-08-16T05:10:24;6.17;;;5.13;;
5127;SDS011;2582;48.770;9.190;2022-08-16T05:12:50;5.60;;;4.50;;
5127;SDS011;2582;48.770;9.190;2022-08-16T05:15:16;5.33;;;4.93;;
5127;SDS011;2582;48.770;9.190;2022-08-16T05:17:41;5.10;;;4.47;;
5127;SDS011;2582;48.770;9.190;2022-08-16T05:20:08;8.53;;;5.37;;
5127;SDS011;2582;48.770;9.190;2022-08-16T05:22:35;6.00;;;4.33;;
5127;SDS011;2582;48.770;9.190;2022-08-16T05:25:03;4.97;;;4.57;;
5127;SDS011;2582;48.770;9.190;2022-08-16T05:27:30;5.10;;;4.30;;
5127;SDS011;2582;48.770;9.190;2022-08-16T05:29:55;5.33;;;4.83;;
5127;SDS011;2582;48.770;9.190;2022-08-16T05:32:21;5.20;;;4.70;;
5127;SDS011;2582;48.770;9.190;2022-08-16T05:34:47;4.70;;;4.20;;
5127;SDS011;2582;48.770;9.190;2022-08-16T05:37:12;4.60;;;4.20;;
5127;SDS011;2582;48.770;9.190;2022-08-16T05:39:38;4.50;;;4.10;;
5127;SDS011;2582;48.770;9.190;2022-08-16T05:42:04;4.60;;;4.17;;
5127;SDS011;2582;48.770;9.190;2022-08-16T05:44:30;5.10;;;4.70;;
5127;SDS011;2582;48.770;9.190;2022-08-16T05:46:56;5.50;;;5.00;;
5127;SDS011;2582;48.770;9.190;2022-08-16T05:49:25;6.20;;;4.70;;
5127;SDS011;2582;48.770;9.190;2022-08-16T05:51:52;5.33;;;4.50;;
5127;SDS011;2582;48.770;9.190;2022-08-16T05:54:20;4.97;;;4.47;;
5127;SDS011;2582;48.770;9.190;2022-08-16T05:56:48;7.17;;;4.77;;
5127;SDS011;2582;48.770;9.190;2022-08-16T05:59:14;4.50;;;4.20;;
5127;SDS011;2582;48.770;9.190;2022-08-16T06:01:42;4.70;;;4.30;;
5127;SDS011;2582;48.770;9.190;2022-08-16T06:04:09;4.47;;;4.07;;
5127;SDS011;2582;48.770;9.190;2022-08-16T06:06:36;5.33;;;4.60;;
5127;SDS011;2582;48.770;9.190;2022-08-16T06:09:02;5.13;;;4.63;;
5127;SDS011;2582;48.770;9.190;2022-08-16T06:11:28;4.60;;;4.20;;
5127;SDS011;2582;48.770;9.190;2022-08-16T06:13:53;5.80;;;4.60;;
5127;SDS011;2582;48.770;9.190;2022-08-16T06:16:19;4.43;;;4.07;;
5127;SDS011;2582;48.770;9.190;2022-08-16T06:18:45;4.77;;;4.27;;
5127;SDS011;2582;48.770;9.190;2022-08-16T06:21:11;5.30;;;4.80;;
5127;SDS011;2582;48.770;9.190;2022-08-16T06:23:38;5.20;;;4.80;;
5127;SDS011;2582;48.770;9.190;2022-08-16T06:26:04;4.97;;;4.57;;
5127;SDS011;2582;48.770;9.190;2022-08-16T06:28:31;5.60;;;4.70;;
5127;SDS011;2582;48.770;9.190;2022-08-16T06:30:57;6.23;;;4.70;;
5127;SDS011;2582;48.770;9.190;2022-08-16T06:33:23;5.63;;;5.13;;
5127;SDS011;2582;48.770;9.190;2022-08-16T06:35:49;5.87;;;5.27;;
5127;SDS011;2582;48.770;9.190;2022-08-16T06:38:16;5.07;;;4.50;;
5127;SDS011;2582;48.770;9.190;2022-08-16T06:40:42;4.70;;;4.30;;
5127;SDS011;2582;48.770;9.190;2022-08-16T06:43:07;4.97;;;4.47;;
5127;SDS011;2582;48.770;9.190;2022-08-16T06:45:33;5.90;;;5.30;;
5127;SDS011;2582;48.770;9.190;2022-08-16T06:48:02;5.53;;;5.03;;
5127;SDS011;2582;48.770;9.190;2022-08-16T06:50:28;6.67;;;5.17;;
5127;SDS011;2582;48.770;9.190;2022-08-16T06:52:54;5.37;;;4.83;;
5127;SDS011;2582;48.770;9.190;2022-08-16T06:55:20;7.03;;;5.23;;
5127;SDS011;2582;48.770;9.190;2022-08-16T06:57:45;5.50;;;5.00;;
5127;SDS011;2582;48.770;9.190;2022-08-16T07:00:12;6.30;;;4.70;;
5127;SDS011;2582;48.770;9.190;2022-08-16T07:02:42;8.17;;;6.27;;
5127;SDS011;2582;48.770;9.190;2022-08-16T07:05:09;5.77;;;5.27;;
5127;SDS011;2582;48.770;9.190;2022-08-16T07:07:36;6.20;;;5.60;;
5127;SDS011;2582;48.770;9.190;2022-08-16T07:10:04;6.33;;;5.70;;
5127;SDS011;2582;48.770;9.190;2022-08-16T07:12:31;7.73;;;6.40;;
5127;SDS011;2582;48.770;9.190;2022-08-16T07:14:56;6.20;;;5.40;;
5127;SDS011;2582;48.770;9.190;2022-08-16T07:17:22;5.47;;;5.00;;
5127;SDS011;2582;48.770;9.190;2022-08-16T07:19:49;5.83;;;5.33;;
5127;SDS011;2582;48.770;9.190;2022-08-16T07:22:15;5.23;;;4.83;;
5127;SDS011;2582;48.770;9.190;2022-08-16T07:24:42;5.80;;;5.30;;
5127;SDS011;2582;48.770;9.190;2022-08-16T07:27:09;5.30;;;4.90;;
5127;SDS011;2582;48.770;9.190;2022-08-16T07:29:36;8.90;;;4.80;;
5127;SDS011;2582;48.770;9.190;2022-08-16T07:32:03;5.33;;;4.80;;
5127;SDS011;2582;48.770;9.190;2022-08-16T07:34:29;5.80;;;5.30;;
5127;SDS011;2582;48.770;9.190;2022-08-16T07:36:55;6.30;;;5.23;;
5127;SDS011;2582;48.770;9.190;2022-08-16T07:39:23;5.57;;;5.17;;
5127;SDS011;2582;48.770;9.190;2022-08-16T07:41:48;5.43;;;4.93;;
5127;SDS011;2582;48.770;9.190;2022-08-16T07:44:14;6.10;;;5.30;;
5127;SDS011;2582;48.770;9.190;2022-08-16T07:46:39;5.57;;;5.17;;
5127;SDS011;2582;48.770;9.190;2022-08-16T07:49:05;7.90;;;5.13;;
5127;SDS011;2582;48.770;9.190;2022-08-16T07:51:31;5.80;;;5.40;;
5127;SDS011;2582;48.770;9.190;2022-08-16T07:54:00;7.20;;;6.00;;
5127;SDS011;2582;48.770;9.190;2022-08-16T07:56:27;6.20;;;5.03;;
5127;SDS011;2582;48.770;9.190;2022-08-16T07:58:54;6.33;;;5.73;;
5127;SDS011;2582;48.770;9.190;2022-08-16T08:01:20;6.20;;;5.70;;
5127;SDS011;2582;48.770;9.190;2022-08-16T08:03:47;5.67;;;5.17;;
5127;SDS011;2582;48.770;9.190;2022-08-16T08:06:13;5.77;;;5.20;;
5127;SDS011;2582;48.770;9.190;2022-08-16T08:08:43;5.77;;;5.27;;
5127;SDS011;2582;48.770;9.190;2022-08-16T08:11:09;6.80;;;6.10;;
5127;SDS011;2582;48.770;9.190;2022-08-16T08:13:34;6.70;;;6.20;;
5127;SDS011;2582;48.770;9.190;2022-08-16T08:16:01;7.50;;;5.10;;
5127;SDS011;2582;48.770;9.190;2022-08-16T08:18:26;5.90;;;5.40;;
5127;SDS011;2582;48.770;9.190;2022-08-16T08:20:54;6.00;;;5.50;;
5127;SDS011;2582;48.770;9.190;2022-08-16T08:23:19;5.33;;;4.93;;
5127;SDS011;2582;48.770;9.190;2022-08-16T08:25:46;6.87;;;5.27;;
5127;SDS011;2582;48.770;9.190;2022-08-16T08:28:12;5.67;;;5.10;;
5127;SDS011;2582;48.770;9.190;2022-08-16T08:30:38;7.20;;;6.50;;
5127;SDS011;2582;48.770;9.190;2022-08-16T08:33:04;7.40;;;4.97;;
5127;SDS011;2582;48.770;9.190;2022-08-16T08:35:30;5.67;;;5.27;;
5127;SDS011;2582;48.770;9.190;2022-08-16T08:37:57;6.93;;;5.80;;
5127;SDS011;2582;48.770;9.190;2022-08-16T08:40:24;6.47;;;5.87;;
5127;SDS011;2582;48.770;9.190;2022-08-16T08:42:50;6.93;;;5.83;;
5127;SDS011;2582;48.770;9.190;2022-08-16T08:45:16;6.63;;;5.87;;
5127;SDS011;2582;48.770;9.190;2022-08-16T08:47:42;6.27;;;5.77;;
5127;SDS011;2582;48.770;9.190;2022-08-16T08:50:11;7.93;;;6.67;;
5127;SDS011;2582;48.770;9.190;2022-08-16T08:52:38;6.07;;;5.57;;
5127;SDS011;2582;48.770;9.190;2022-08-16T08:55:04;5.60;;;5.10;;
5127;SDS011;2582;48.770;9.190;2022-08-16T08:57:32;6.53;;;5.83;;
5127;SDS011;2582;48.770;9.190;2022-08-16T08:59:57;6.13;;;5.40;;
5127;SDS011;2582;48.770;9.190;2022-08-16T09:02:23;7.67;;;5.70;;
5127;SDS011;2582;48.770;9.190;2022-08-16T09:04:49;5.17;;;4.60;;
5127;SDS011;2582;48.770;9.190;2022-08-16T09:07:14;8.73;;;6.23;;
5127;SDS011;2582;48.770;9.190;2022-08-16T09:09:41;6.27;;;5.67;;
5127;SDS011;2582;48.770;9.190;2022-08-16T09:12:06;8.23;;;6.77;;
5127;SDS011;2582;48.770;9.190;2022-08-16T09:14:33;6.23;;;5.73;;
5127;SDS011;2582;48.770;9.190;2022-08-16T09:16:59;6.93;;;5.77;;
5127;SDS011;2582;48.770;9.190;2022-08-16T09:19:25;6.70;;;5.97;;
5127;SDS011;2582;48.770;9.190;2022-08-16T09:21:51;7.20;;;6.47;;
5127;SDS011;2582;48.770;9.190;2022-08-16T09:24:17;6.70;;;6.00;;
5127;SDS011;2582;48.770;9.190;2022-08-16T09:26:43;6.67;;;6.00;;
5127;SDS011;2582;48.770;9.190;2022-08-16T09:29:08;7.60;;;6.27;;
5127;SDS011;2582;48.770;9.190;2022-08-16T09:31:34;7.43;;;6.63;;
5127;SDS011;2582;48.770;9.190;2022-08-16T09:33:59;7.50;;;6.80;;
5127;SDS011;2582;48.770;9.190;2022-08-16T09:36:27;7.23;;;6.53;;
5127;SDS011;2582;48.770;9.190;2022-08-16T09:38:53;6.80;;;5.60;;
5127;SDS011;2582;48.770;9.190;2022-08-16T09:41:20;7.30;;;6.00;;
5127;SDS011;2582;48.770;9.190;2022-08-16T09:43:46;7.90;;;6.00;;
5127;SDS011;2582;48.770;9.190;2022-08-16T09:46:11;6.80;;;5.70;;
5127;SDS011;2582;48.770;9.190;2022-08-16T09:48:37;6.77;;;6.07;;
5127;SDS011;2582;48.770;9.190;2022-08-16T09:51:05;7.00;;;6.33;;
5127;SDS011;2582;48.770;9.190;2022-08-16T09:53:33;6.73;;;6.20;;
5127;SDS011;2582;48.770;9.190;2022-08-16T09:55:59;7.40;;;6.10;;
5127;SDS011;2582;48.770;9.190;2022-08-16T09:58:26;6.40;;;5.80;;
5127;SDS011;2582;48.770;9.190;2022-08-16T10:00:52;7.80;;;5.67;;
5127;SDS011;2582;48.770;9.190;2022-08-16T10:03:18;7.83;;;7.03;;
5127;SDS011;2582;48.770;9.190;2022-08-16T10:05:45;6.40;;;5.80;;
5127;SDS011;2582;48.770;9.190;2022-08-16T10:08:11;6.73;;;6.00;;
5127;SDS011;2582;48.770;9.190;2022-08-16T10:10:37;5.67;;;5.17;;
5127;SDS011;2582;48.770;9.190;2022-08-16T10:13:06;8.30;;;6.17;;
5127;SDS011;2582;48.770;9.190;2022-08-16T10:15:43;7.30;;;5.90;;
5127;SDS011;2582;48.770;9.190;2022-08-16T10:18:11;6.53;;;5.90;;
5127;SDS011;2582;48.770;9.190;2022-08-16T10:20:39;6.20;;;5.60;;
5127;SDS011;2582;48.770;9.190;2022-08-16T10:23:08;6.40;;;5.80;;
5127;SDS011;2582;48.770;9.190;2022-08-16T10:25:36;6.00;;;5.30;;
5127;SDS011;2582;48.770;9.190;2022-08-16T10:28:04;6.60;;;5.90;;
5127;SDS011;2582;48.770;9.190;2022-08-16T10:30:30;7.03;;;6.33;;
5127;SDS011;2582;48.770;9.190;2022-08-16T10:32:56;5.80;;;5.40;;
5127;SDS011;2582;48.770;9.190;2022-08-16T10:35:22;8.10;;;5.97;;
5127;SDS011;2582;48.770;9.190;2022-08-16T10:37:49;6.37;;;5.87;;
5127;SDS011;2582;48.770;9.190;2022-08-16T10:40:16;9.23;;;5.93;;
5127;SDS011;2582;48.770;9.190;2022-08-16T10:42:42;6.40;;;5.80;;
5127;SDS011;2582;48.770;9.190;2022-08-16T10:45:08;7.53;;;5.97;;
5127;SDS011;2582;48.770;9.190;2022-08-16T10:47:34;5.50;;;5.00;;
5127;SDS011;2582;48.770;9.190;2022-08-16T10:50:01;6.30;;;5.70;;
5127;SDS011;2582;48.770;9.190;2022-08-16T10:52:28;5.93;;;5.33;;
5127;SDS011;2582;48.770;9.190;2022-08-16T10:54:55;5.73;;;5.23;;
5127;SDS011;2582;48.770;9.190;2022-08-16T10:57:20;6.30;;;5.70;;
5127;SDS011;2582;48.770;9.190;2022-08-16T10:59:46;6.80;;;6.20;;
5127;SDS011;2582;48.770;9.190;2022-08-16T11:02:11;6.13;;;5.53;;
5127;SDS011;2582;48.770;9.190;2022-08-16T11:04:38;5.90;;;5.40;;
5127;SDS011;2582;48.770;9.190;2022-08-16T11:07:04;6.83;;;5.40;;
5127;SDS011;2582;48.770;9.190;2022-08-16T11:09:30;5.73;;;5.23;;
5127;SDS011;2582;48.770;9.190;2022-08-16T11:11:55;5.30;;;4.90;;
5127;SDS011;2582;48.770;9.190;2022-08-16T11:14:21;6.00;;;5.50;;
5127;SDS011;2582;48.770;9.190;2022-08-16T11:16:48;5.70;;;5.20;;
5127;SDS011;2582;48.770;9.190;2022-08-16T11:19:14;5.20;;;4.70;;
5127;SDS011;2582;48.770;9.190;2022-08-16T11:21:40;4.73;;;4.43;;
5127;SDS011;2582;48.770;9.190;2022-08-16T11:24:07;8.20;;;4.80;;
5127;SDS011;2582;48.770;9.190;2022-08-16T11:26:33;5.63;;;5.13;;
5127;SDS011;2582;48.770;9.190;2022-08-16T11:28:58;5.03;;;4.53;;
5127;SDS011;2582;48.770;9.190;2022-08-16T11:31:24;4.83;;;4.43;;
5127;SDS011;2582;48.770;9.190;2022-08-16T11:33:50;5.23;;;4.77;;
5127;SDS011;2582;48.770;9.190;2022-08-16T11:36:16;5.47;;;4.60;;
5127;SDS011;2582;48.770;9.190;2022-08-16T11:38:43;4.87;;;4.43;;
5127;SDS011;2582;48.770;9.190;2022-08-16T11:41:09;4.60;;;4.20;;
5127;SDS011;2582;48.770;9.190;2022-08-16T11:43:36;7.00;;;4.83;;
5127;SDS011;2582;48.770;9.190;2022-08-16T11:46:06;5.60;;;5.10;;
5127;SDS011;2582;48.770;9.190;2022-08-16T11:48:34;5.10;;;4.30;;
5127;SDS011;2582;48.770;9.190;2022-08-16T11:51:00;5.33;;;4.80;;
5127;SDS011;2582;48.770;9.190;2022-08-16T11:53:27;4.80;;;4.40;;
5127;SDS011;2582;48.770;9.190;2022-08-16T11:55:53;6.27;;;4.63;;
5127;SDS011;2582;48.770;9.190;2022-08-16T11:58:20;5.63;;;5.13;;
5127;SDS011;2582;48.770;9.190;2022-08-16T12:00:47;4.63;;;4.20;;
5127;SDS011;2582;48.770;9.190;2022-08-16T12:03:13;5.20;;;4.43;;
5127;SDS011;2582;48.770;9.190;2022-08-16T12:05:40;5.63;;;4.43;;
5127;SDS011;2582;48.770;9.190;2022-08-16T12:08:07;6.70;;;4.40;;
5127;SDS011;2582;48.770;9.190;2022-08-16T12:10:34;5.80;;;5.20;;
5127;SDS011;2582;48.770;9.190;2022-08-16T12:13:01;5.10;;;4.70;;
5127;SDS011;2582;48.770;9.190;2022-08-16T12:15:27;5.93;;;5.10;;
5127;SDS011;2582;48.770;9.190;2022-08-16T12:17:53;5.07;;;4.37;;
5127;SDS011;2582;48.770;9.190;2022-08-16T12:20:21;5.47;;;4.37;;
5127;SDS011;2582;48.770;9.190;2022-08-16T12:22:50;4.63;;;4.10;;
5127;SDS011;2582;48.770;9.190;2022-08-16T12:25:17;6.73;;;4.87;;
5127;SDS011;2582;48.770;9.190;2022-08-16T12:27:44;4.00;;;3.70;;
5127;SDS011;2582;48.770;9.190;2022-08-16T12:30:12;4.50;;;4.10;;
5127;SDS011;2582;48.770;9.190;2022-08-16T12:32:40;4.50;;;4.10;;
5127;SDS011;2582;48.770;9.190;2022-08-16T12:35:07;5.30;;;3.97;;
5127;SDS011;2582;48.770;9.190;2022-08-16T12:37:35;4.30;;;4.00;;
5127;SDS011;2582;48.770;9.190;2022-08-16T12:40:02;4.63;;;4.23;;
5127;SDS011;2582;48.770;9.190;2022-08-16T12:42:31;4.83;;;4.20;;
5127;SDS011;2582;48.770;9.190;2022-08-16T12:44:58;3.83;;;3.53;;
5127;SDS011;2582;48.770;9.190;2022-08-16T12:47:24;6.30;;;4.30;;
5127;SDS011;2582;48.770;9.190;2022-08-16T12:50:09;4.10;;;3.80;;
5127;SDS011;2582;48.770;9.190;2022-08-16T12:52:35;6.30;;;4.43;;
5127;SDS011;2582;48.770;9.190;2022-08-16T12:55:01;4.90;;;4.30;;
5127;SDS011;2582;48.770;9.190;2022-08-16T12:57:28;4.33;;;3.93;;
5127;SDS011;2582;48.770;9.190;2022-08-16T12:59:53;4.73;;;4.30;;
5127;SDS011;2582;48.770;9.190;2022-08-16T13:02:19;4.30;;;3.57;;
5127;SDS011;2582;48.770;9.190;2022-08-16T13:04:46;4.20;;;3.80;;
5127;SDS011;2582;48.770;9.190;2022-08-16T13:07:12;4.30;;;3.43;;
5127;SDS011;2582;48.770;9.190;2022-08-16T13:09:38;4.33;;;3.60;;
5127;SDS011;2582;48.770;9.190;2022-08-16T13:12:15;3.93;;;3.63;;
5127;SDS011;2582;48.770;9.190;2022-08-16T13:14:48;3.90;;;3.43;;
5127;SDS011;2582;48.770;9.190;2022-08-16T13:17:18;3.40;;;3.10;;
5127;SDS011;2582;48.770;9.190;2022-08-16T13:19:47;3.73;;;3.37;;
5127;SDS011;2582;48.770;9.190;2022-08-16T13:22:13;4.50;;;3.40;;
5127;SDS011;2582;48.770;9.190;2022-08-16T13:24:39;4.23;;;3.33;;
5127;SDS011;2582;48.770;9.190;2022-08-16T13:27:05;3.20;;;2.97;;
5127;SDS011;2582;48.770;9.190;2022-08-16T13:29:30;3.53;;;3.23;;
5127;SDS011;2582;48.770;9.190;2022-08-16T13:31:56;6.30;;;3.27;;
5127;SDS011;2582;48.770;9.190;2022-08-16T13:34:21;3.77;;;3.47;;
5127;SDS011;2582;48.770;9.190;2022-08-16T13:36:47;5.90;;;3.73;;
5127;SDS011;2582;48.770;9.190;2022-08-16T13:39:13;3.43;;;3.13;;
5127;SDS011;2582;48.770;9.190;2022-08-16T13:41:38;3.90;;;3.50;;
5127;SDS011;2582;48.770;9.190;2022-08-16T13:44:05;4.03;;;3.63;;
5127;SDS011;2582;48.770;9.190;2022-08-16T13:46:31;3.20;;;3.00;;
5127;SDS011;2582;48.770;9.190;2022-08-16T13:48:57;3.87;;;3.47;;
5127;SDS011;2582;48.770;9.190;2022-08-16T13:51:24;4.20;;;3.47;;
5127;SDS011;2582;48.770;9.190;2022-08-16T13:53:53;6.60;;;3.70;;
5127;SDS011;2582;48.770;9.190;2022-08-16T13:56:21;3.80;;;3.50;;
5127;SDS011;2582;48.770;9.190;2022-08-16T13:58:48;3.60;;;2.90;;
5127;SDS011;2582;48.770;9.190;2022-08-16T14:01:14;4.07;;;3.47;;
5127;SDS011;2582;48.770;9.190;2022-08-16T14:03:40;3.00;;;2.80;;
5127;SDS011;2582;48.770;9.190;2022-08-16T14:06:09;4.33;;;3.73;;
5127;SDS011;2582;48.770;9.190;2022-08-16T14:08:35;5.50;;;3.40;;
5127;SDS011;2582;48.770;9.190;2022-08-16T14:11:02;3.50;;;3.30;;
5127;SDS011;2582;48.770;9.190;2022-08-16T14:13:29;3.50;;;3.20;;
5127;SDS011;2582;48.770;9.190;2022-08-16T14:15:55;3.90;;;3.43;;
5127;SDS011;2582;48.770;9.190;2022-08-16T14:18:21;3.77;;;3.47;;
5127;SDS011;2582;48.770;9.190;2022-08-16T14:20:46;3.90;;;3.50;;
5127;SDS011;2582;48.770;9.190;2022-08-16T14:23:12;4.80;;;3.80;;
5127;SDS011;2582;48.770;9.190;2022-08-16T14:25:38;4.20;;;3.13;;
5127;SDS011;2582;48.770;9.190;2022-08-16T14:28:04;3.63;;;3.33;;
5127;SDS011;2582;48.770;9.190;2022-08-16T14:30:29;3.00;;;2.80;;
5127;SDS011;2582;48.770;9.190;2022-08-16T14:32:55;3.77;;;3.30;;
5127;SDS011;2582;48.770;9.190;2022-08-16T14:35:23;3.63;;;3.33;;
5127;SDS011;2582;48.770;9.190;2022-08-16T14:37:51;3.33;;;3.03;;
5127;SDS011;2582;48.770;9.190;2022-08-16T14:40:17;3.00;;;2.70;;
5127;SDS011;2582;48.770;9.190;2022-08-16T14:42:44;5.17;;;3.20;;
5127;SDS011;2582;48.770;9.190;2022-08-16T14:45:11;3.00;;;2.70;;
5127;SDS011;2582;48.770;9.190;2022-08-16T14:47:38;3.63;;;3.17;;
5127;SDS011;2582;48.770;9.190;2022-08-16T14:50:05;3.53;;;3.33;;
5127;SDS011;2582;48.770;9.190;2022-08-16T14:52:32;4.27;;;3.90;;
5127;SDS011;2582;48.770;9.190;2022-08-16T14:54:58;3.50;;;3.20;;
5127;SDS011;2582;48.770;9.190;2022-08-16T14:57:24;3.60;;;3.30;;
5127;SDS011;2582;48.770;9.190;2022-08-16T14:59:49;4.53;;;3.60;;
5127;SDS011;2582;48.770;9.190;2022-08-16T15:02:19;3.63;;;3.33;;
5127;SDS011;2582;48.770;9.190;2022-08-16T15:04:46;5.87;;;3.43;;
5127;SDS011;2582;48.770;9.190;2022-08-16T15:07:12;8.23;;;6.17;;
5127;SDS011;2582;48.770;9.190;2022-08-16T15:09:39;3.30;;;3.00;;
5127;SDS011;2582;48.770;9.190;2022-08-16T15:12:06;3.40;;;3.10;;
5127;SDS011;2582;48.770;9.190;2022-08-16T15:14:38;3.60;;;3.27;;
5127;SDS011;2582;48.770;9.190;2022-08-16T15:17:04;4.33;;;3.93;;